Time;durP1;ratioP1;P1;durP2;ratioP2;P2;SDS_P1;SDS_P2;PMS_P1;PMS_P2;Temp;Humidity;BMP_temperature;BMP_pressure;BME280_temperature;BME280_humidity;BME280_pressure;Samples;Min_cycle;Max_cycle;Signal;HPM_P1;HPM_P2
2023/08/16 00:00:58;;;;;;;11.55;9.13;;;;;;;24.36;65.72;99273.94;5030918;28;20056;-73
2023/08/16 00:03:24;;;;;;;14.52;11.15;;;;;;;24.44;65.45;99286.06;5032108;28;20044;-74
2023/08/16 00:05:49;;;;;;;13.40;11.05;;;;;;;24.42;65.51;99283.63;5029993;28;20025;-74
2023/08/16 00:08:14;;;;;;;13.02;10.95;;;;;;;24.30;66.60;99292.84;5011717;28;20029;-73
2023/08/16 00:10:40;;;;;;;13.50;11.18;;;;;;;24.10;67.18;99271.50;5022559;28;20495;-73
2023/08/16 00:13:06;;;;;;;14.30;11.40;;;;;;;24.30;66.51;99292.84;5021828;28;20029;-73
2023/08/16 00:15:31;;;;;;;20.40;11.85;;;;;;;24.38;66.47;99295.13;5023675;28;20026;-73
2023/08/16 00:17:57;;;;;;;11.65;10.55;;;;;;;24.43;65.85;99290.97;5027846;28;20040;-73
2023/08/16 00:20:26;;;;;;;15.57;11.40;;;;;;;24.30;66.84;99287.91;5031795;28;20504;-73
2023/08/16 00:22:52;;;;;;;12.02;10.82;;;;;;;24.27;66.91;99299.41;5029067;28;20048;-73
2023/08/16 00:25:18;;;;;;;15.60;12.27;;;;;;;24.18;67.05;99280.78;5029561;28;20049;-74
2023/08/16 00:27:44;;;;;;;13.43;10.90;;;;;;;24.10;67.50;99284.97;5030500;28;20032;-73
2023/08/16 00:30:10;;;;;;;16.90;11.27;;;;;;;24.08;67.91;99296.84;5028153;28;20165;-73
2023/08/16 00:32:36;;;;;;;14.15;9.98;;;;;;;24.17;67.42;99292.63;5012751;28;20080;-73
2023/08/16 00:35:06;;;;;;;17.30;11.38;;;;;;;24.15;67.55;99292.25;5010527;28;20125;-73
2023/08/16 00:37:31;;;;;;;12.40;10.75;;;;;;;24.25;66.90;99294.94;5026938;28;20039;-74
2023/08/16 00:39:57;;;;;;;14.10;11.27;;;;;;;24.15;67.28;99295.09;5014397;28;20472;-74
2023/08/16 00:42:22;;;;;;;14.68;10.82;;;;;;;23.95;68.39;99295.78;5011750;28;20049;-73
2023/08/16 00:44:48;;;;;;;15.18;11.10;;;;;;;23.95;68.56;99295.78;5021943;28;20036;-74
2023/08/16 00:47:14;;;;;;;20.95;11.95;;;;;;;24.17;67.66;99293.44;5030802;28;20045;-74
2023/08/16 00:49:40;;;;;;;13.98;10.88;;;;;;;24.31;67.75;99294.44;5029967;28;20044;-73
2023/08/16 00:52:06;;;;;;;17.67;11.40;;;;;;;24.07;68.24;99285.84;5030861;28;20026;-73
2023/08/16 00:54:32;;;;;;;20.52;12.02;;;;;;;23.38;71.34;99293.31;5030042;28;20025;-73
2023/08/16 00:56:58;;;;;;;14.30;12.82;;;;;;;23.28;71.93;99297.94;5031300;28;20032;-73
2023/08/16 00:59:26;;;;;;;15.18;11.48;;;;;;;23.48;71.44;99303.00;5029854;28;20025;-74
2023/08/16 01:01:52;;;;;;;13.25;11.65;;;;;;;23.69;70.78;99301.88;5027167;28;20060;-74
2023/08/16 01:04:19;;;;;;;11.93;10.73;;;;;;;23.88;69.33;99298.75;5023333;28;20220;-73
2023/08/16 01:06:44;;;;;;;19.80;12.27;;;;;;;23.91;68.95;99280.75;5027085;28;20025;-77
2023/08/16 01:09:10;;;;;;;15.63;11.90;;;;;;;24.03;68.60;99297.31;5031034;28;20412;-77
2023/08/16 01:11:45;;;;;;;17.92;12.98;;;;;;;23.65;70.37;99295.41;5029857;28;20136;-77
2023/08/16 01:14:20;;;;;;;18.00;12.82;;;;;;;23.21;72.51;99291.47;5029798;28;20037;-76
2023/08/16 01:16:46;;;;;;;16.02;12.68;;;;;;;22.94;73.92;99295.84;5030436;28;20033;-76
2023/08/16 01:19:25;;;;;;;15.73;13.23;;;;;;;22.76;74.95;99298.09;5012658;28;20461;-76
2023/08/16 01:21:59;;;;;;;16.23;13.32;;;;;;;22.66;75.32;99292.06;5011293;28;20032;-76
2023/08/16 01:24:33;;;;;;;17.02;14.23;;;;;;;22.58;75.70;99288.50;5014812;28;20503;-76
2023/08/16 01:26:59;;;;;;;18.35;14.75;;;;;;;22.42;76.48;99288.19;5029671;28;20025;-76
2023/08/16 01:29:26;;;;;;;20.73;15.60;;;;;;;22.36;77.28;99287.84;5030881;28;20026;-77
2023/08/16 01:31:52;;;;;;;18.27;15.55;;;;;;;22.37;77.04;99285.81;5029612;28;20030;-77
2023/08/16 01:34:17;;;;;;;22.20;15.80;;;;;;;22.52;76.63;99295.88;5021227;28;20029;-76
2023/08/16 01:36:43;;;;;;;19.42;14.38;;;;;;;22.75;75.29;99293.63;5015872;28;20029;-76
2023/08/16 01:39:08;;;;;;;20.77;15.90;;;;;;;22.98;74.10;99308.00;5030915;28;20022;-76
2023/08/16 01:41:48;;;;;;;22.20;16.67;;;;;;;22.81;74.40;99303.31;5030787;28;20037;-76
2023/08/16 01:44:15;;;;;;;;;;;;;;;22.61;75.42;99289.66;5030843;28;20033;-76
2023/08/16 01:46:43;;;;;;;22.95;16.88;;;;;;;22.48;75.99;99297.94;5030087;28;20593;-76
2023/08/16 01:49:10;;;;;;;38.70;17.98;;;;;;;22.48;76.12;99295.09;5029058;28;20404;-76
2023/08/16 01:51:36;;;;;;;22.40;16.85;;;;;;;22.75;74.87;99299.34;5030188;28;20030;-76
2023/08/16 01:54:01;;;;;;;19.02;16.83;;;;;;;23.00;73.25;99296.19;5030676;28;20026;-76
2023/08/16 01:56:27;;;;;;;25.60;16.60;;;;;;;23.17;72.06;99290.69;5029317;28;20026;-76
2023/08/16 01:58:53;;;;;;;20.73;17.23;;;;;;;23.31;71.56;99298.31;5030809;28;20108;-76
2023/08/16 02:01:18;;;;;;;25.48;17.35;;;;;;;23.28;71.59;99289.38;5029592;28;20033;-76
2023/08/16 02:03:44;;;;;;;27.73;18.65;;;;;;;23.09;72.41;99295.69;5034154;28;20163;-76
2023/08/16 02:06:09;;;;;;;22.33;17.95;;;;;;;22.89;73.22;99289.81;5017250;28;20030;-76
2023/08/16 02:08:35;;;;;;;25.10;17.92;;;;;;;22.72;73.88;99283.88;5014521;28;20030;-76
2023/08/16 02:11:00;;;;;;;37.05;20.17;;;;;;;22.84;73.41;99282.50;5026252;28;20033;-76
2023/08/16 02:13:26;;;;;;;25.83;17.60;;;;;;;22.93;73.16;99285.69;5034310;28;20036;-76
2023/08/16 02:16:01;;;;;;;31.73;18.25;;;;;;;22.82;73.06;99285.81;5029290;28;20025;-76
2023/08/16 02:18:31;;;;;;;24.58;17.35;;;;;;;22.84;73.28;99274.78;5019903;28;20032;-76
2023/08/16 02:20:57;;;;;;;25.17;15.73;;;;;;;22.88;72.96;99273.94;5013733;28;20057;-76
2023/08/16 02:23:23;;;;;;;25.00;15.77;;;;;;;22.88;72.89;99273.94;5014374;28;20508;-76
2023/08/16 02:25:48;;;;;;;20.05;15.80;;;;;;;22.94;72.93;99283.66;5014160;28;20034;-76
2023/08/16 02:28:14;;;;;;;22.35;15.80;;;;;;;23.07;72.62;99284.72;5012868;28;20460;-76
2023/08/16 02:30:39;;;;;;;20.45;15.20;;;;;;;23.09;71.98;99287.13;5014418;28;20101;-76
2023/08/16 02:33:05;;;;;;;23.23;14.60;;;;;;;22.94;72.65;99284.44;5014075;28;20029;-76
2023/08/16 02:35:31;;;;;;;20.10;14.48;;;;;;;22.91;73.24;99285.31;5013476;28;20029;-76
2023/08/16 02:37:57;;;;;;;20.45;14.68;;;;;;;23.06;72.44;99285.94;5021759;28;20040;-76
2023/08/16 02:40:22;;;;;;;18.48;14.73;;;;;;;23.11;72.22;99276.91;5028980;28;20029;-76
2023/08/16 02:42:49;;;;;;;19.05;14.65;;;;;;;23.26;71.42;99279.59;5031404;28;20031;-76
2023/08/16 02:45:15;;;;;;;16.48;13.57;;;;;;;23.06;72.73;99282.28;5019358;28;20033;-76
2023/08/16 02:47:41;;;;;;;18.90;15.02;;;;;;;22.88;73.48;99285.34;5026279;28;20045;-76
2023/08/16 02:50:07;;;;;;;24.25;14.93;;;;;;;22.61;74.59;99288.88;5033538;28;20036;-76
2023/08/16 02:52:32;;;;;;;31.08;15.15;;;;;;;22.35;75.88;99289.06;5022835;28;20033;-76
2023/08/16 02:54:58;;;;;;;19.30;14.68;;;;;;;22.22;76.77;99283.09;5013679;28;20098;-76
2023/08/16 02:57:23;;;;;;;22.63;14.80;;;;;;;22.30;76.77;99290.31;5013565;28;20041;-76
2023/08/16 02:59:49;;;;;;;18.15;14.82;;;;;;;22.35;77.01;99293.97;5027416;28;20203;-76
2023/08/16 03:02:14;;;;;;;14.45;12.98;;;;;;;22.50;76.45;99292.63;5032883;28;20094;-76
2023/08/16 03:04:40;;;;;;;17.05;13.40;;;;;;;22.56;76.46;99290.13;5033280;28;20103;-76
2023/08/16 03:07:10;;;;;;;25.50;13.93;;;;;;;22.54;76.76;99290.53;5033223;28;20021;-76
2023/08/16 03:09:36;;;;;;;17.30;14.90;;;;;;;22.65;76.20;99281.91;5030005;28;20078;-76
2023/08/16 03:12:02;;;;;;;21.27;14.52;;;;;;;22.85;75.19;99290.66;5031082;28;20034;-76
2023/08/16 03:14:30;;;;;;;22.00;15.35;;;;;;;22.76;76.04;99281.78;5030491;28;20459;-76
2023/08/16 03:16:56;;;;;;;20.33;13.95;;;;;;;22.54;77.09;99284.06;5031307;28;20022;-76
2023/08/16 03:19:22;;;;;;;23.77;15.07;;;;;;;22.39;77.66;99284.16;5033054;28;20021;-76
2023/08/16 03:21:48;;;;;;;28.05;14.98;;;;;;;22.33;78.53;99279.34;5017508;28;20029;-76
2023/08/16 03:24:13;;;;;;;126.68;19.23;;;;;;;22.24;78.85;99283.47;5013255;28;20021;-76
2023/08/16 03:26:39;;;;;;;24.45;14.50;;;;;;;22.23;79.25;99292.41;5012665;28;20045;-76
2023/08/16 03:29:05;;;;;;;27.65;15.05;;;;;;;22.05;79.95;99278.31;5013070;28;20026;-76
2023/08/16 03:31:30;;;;;;;23.40;14.68;;;;;;;22.01;80.20;99287.72;5013345;28;20551;-76
2023/08/16 03:33:56;;;;;;;17.25;14.35;;;;;;;22.04;80.43;99288.94;5011575;28;20034;-76
2023/08/16 03:36:21;;;;;;;17.30;14.18;;;;;;;21.94;80.61;99284.91;5012930;28;20236;-76
2023/08/16 03:38:47;;;;;;;28.20;15.48;;;;;;;21.87;80.75;99280.06;5020588;28;20025;-79
2023/08/16 03:41:12;;;;;;;20.95;15.00;;;;;;;21.96;80.93;99282.47;5033481;28;20049;-78
2023/08/16 03:43:38;;;;;;;21.00;14.77;;;;;;;21.94;80.53;99281.28;5027021;28;20026;-77
2023/08/16 03:46:04;;;;;;;22.67;14.65;;;;;;;21.92;80.55;99273.13;5039168;28;20052;-78
2023/08/16 03:48:30;;;;;;;20.85;13.93;;;;;;;22.00;80.50;99286.09;5035022;28;20031;-77
2023/08/16 03:50:56;;;;;;;17.85;13.55;;;;;;;22.01;80.39;99282.03;5032691;28;20029;-75
2023/08/16 03:53:22;;;;;;;28.67;14.85;;;;;;;22.00;80.50;99280.41;5030748;28;20029;-76
2023/08/16 03:55:48;;;;;;;17.17;13.32;;;;;;;21.92;80.98;99289.41;5017895;28;20026;-73
2023/08/16 03:58:13;;;;;;;17.88;14.27;;;;;;;21.85;81.14;99282.53;5013393;28;20017;-78
2023/08/16 04:00:40;;;;;;;23.45;13.98;;;;;;;21.82;81.56;99280.53;5024142;28;20033;-78
2023/08/16 04:03:06;;;;;;;20.73;14.30;;;;;;;21.84;81.52;99277.25;5010943;28;20073;-78
2023/08/16 04:05:32;;;;;;;19.30;13.05;;;;;;;21.82;81.77;99283.38;5012540;28;20409;-78
2023/08/16 04:07:58;;;;;;;24.20;13.88;;;;;;;21.81;81.83;99278.09;5012439;28;20122;-78
2023/08/16 04:10:23;;;;;;;16.95;13.57;;;;;;;21.78;82.02;99279.75;5010988;28;20049;-78
2023/08/16 04:12:49;;;;;;;18.25;13.90;;;;;;;21.81;81.91;99286.63;5012186;28;20413;-78
2023/08/16 04:15:14;;;;;;;25.70;12.85;;;;;;;21.71;82.08;99272.03;5011280;28;20124;-78
2023/08/16 04:17:40;;;;;;;21.67;14.30;;;;;;;21.78;82.15;99276.91;5011807;28;20060;-78
2023/08/16 04:20:07;;;;;;;16.85;13.77;;;;;;;21.80;82.25;99270.78;5012122;28;20034;-78
2023/08/16 04:22:34;;;;;;;18.10;14.95;;;;;;;21.81;82.24;99267.53;5011680;28;20472;-78
2023/08/16 04:24:59;;;;;;;21.40;14.07;;;;;;;21.78;82.51;99276.09;5011511;28;20033;-78
2023/08/16 04:27:25;;;;;;;23.25;14.55;;;;;;;21.79;82.57;99274.84;5011187;28;20068;-78
2023/08/16 04:29:50;;;;;;;22.77;14.57;;;;;;;21.86;82.41;99287.00;5012149;28;20022;-78
2023/08/16 04:32:16;;;;;;;19.52;13.95;;;;;;;21.87;82.10;99288.63;5011257;28;20444;-78
2023/08/16 04:34:41;;;;;;;22.20;13.95;;;;;;;21.68;82.61;99289.16;5011716;28;20033;-78
2023/08/16 04:37:06;;;;;;;21.30;13.95;;;;;;;21.74;82.35;99285.47;5024600;28;20037;-78
2023/08/16 04:39:32;;;;;;;20.13;13.48;;;;;;;21.81;81.85;99293.16;5030283;28;20029;-78
2023/08/16 04:41:57;;;;;;;22.27;12.80;;;;;;;21.83;81.84;99284.16;5026743;28;20404;-78
2023/08/16 04:44:23;;;;;;;17.85;13.77;;;;;;;21.86;81.47;99294.75;5027050;28;20036;-78
2023/08/16 04:46:49;;;;;;;20.92;13.52;;;;;;;21.86;81.39;99298.38;5031435;28;20049;-78
2023/08/16 04:49:15;;;;;;;16.17;12.80;;;;;;;21.86;81.43;99306.94;5028528;28;20044;-78
2023/08/16 04:51:40;;;;;;;22.88;12.68;;;;;;;21.87;80.81;99296.38;5024825;28;20026;-78
2023/08/16 04:54:07;;;;;;;17.92;12.68;;;;;;;21.94;80.83;99301.19;5011745;28;20034;-78
2023/08/16 04:56:33;;;;;;;16.40;13.00;;;;;;;21.98;80.63;99297.09;5013446;28;20485;-78
2023/08/16 04:58:58;;;;;;;59.10;15.65;;;;;;;22.14;79.93;99302.28;5024996;28;20079;-78
2023/08/16 05:01:24;;;;;;;45.33;16.50;;;;;;;22.05;79.97;99296.25;5030148;28;20493;-78
2023/08/16 05:03:52;;;;;;;19.48;13.95;;;;;;;22.08;80.15;99303.94;5027642;28;20141;-78
2023/08/16 05:06:18;;;;;;;23.75;13.10;;;;;;;22.07;80.16;99310.03;5024556;28;20026;-79
2023/08/16 05:08:43;;;;;;;15.73;12.70;;;;;;;22.10;79.98;99307.16;5011263;28;20516;-78
2023/08/16 05:11:09;;;;;;;22.17;13.43;;;;;;;22.19;79.61;99308.75;5011852;28;20034;-78
2023/08/16 05:13:34;;;;;;;22.55;14.13;;;;;;;22.21;79.66;99311.97;5011711;28;20077;-78
2023/08/16 05:16:00;;;;;;;19.30;12.43;;;;;;;22.23;79.62;99313.19;5022877;28;20026;-78
2023/08/16 05:18:25;;;;;;;16.60;12.93;;;;;;;22.22;79.63;99314.41;5021455;28;20060;-78
2023/08/16 05:20:52;;;;;;;23.95;13.18;;;;;;;22.36;79.04;99312.69;5025363;28;20071;-78
2023/08/16 05:23:18;;;;;;;20.13;12.88;;;;;;;22.46;78.57;99314.63;5022737;28;20112;-78
2023/08/16 05:25:43;;;;;;;16.58;12.50;;;;;;;22.54;77.70;99313.34;5011878;28;20084;-78
2023/08/16 05:28:09;;;;;;;18.50;13.38;;;;;;;22.44;78.28;99312.19;5020996;28;20054;-78
2023/08/16 05:30:35;;;;;;;18.58;13.75;;;;;;;22.53;77.94;99313.78;5018119;28;19921;-78
2023/08/16 05:33:00;;;;;;;21.08;14.93;;;;;;;22.54;77.69;99310.50;5011314;28;20504;-78
2023/08/16 05:35:25;;;;;;;16.42;12.82;;;;;;;22.58;77.57;99311.28;5017415;28;20021;-77
2023/08/16 05:43:01;;;;;;;22.90;14.55;;;;;;;22.64;77.91;99311.66;5021446;28;20492;-84
2023/08/16 05:45:28;;;;;;;22.60;13.73;;;;;;;22.82;77.23;99311.47;5017413;28;20021;-83
2023/08/16 05:47:54;;;;;;;23.38;15.25;;;;;;;22.89;76.78;99306.91;5007572;28;20128;-84
2023/08/16 05:50:20;;;;;;;24.75;15.95;;;;;;;23.00;76.80;99313.31;5005347;28;20030;-84
2023/08/16 05:52:46;;;;;;;20.35;14.10;;;;;;;23.13;76.39;99322.94;5007281;28;20121;-83
2023/08/16 05:55:12;;;;;;;23.60;13.35;;;;;;;23.31;75.67;99321.13;5009184;28;20083;-83
2023/08/16 05:57:37;;;;;;;22.50;13.93;;;;;;;23.17;76.02;99313.50;5011752;28;20041;-83
2023/08/16 06:00:03;;;;;;;22.77;12.15;;;;;;;23.32;75.79;99311.34;5015820;28;20025;-83
2023/08/16 06:02:29;;;;;;;24.73;13.93;;;;;;;23.46;75.40;99319.72;5002450;28;20022;-83
2023/08/16 06:04:54;;;;;;;24.20;13.90;;;;;;;23.43;75.16;99317.72;5001164;28;20034;-84
2023/08/16 06:07:21;;;;;;;15.52;13.85;;;;;;;23.44;75.12;99312.81;5018216;28;20033;-83
2023/08/16 06:09:46;;;;;;;29.15;14.32;;;;;;;23.58;74.41;99317.53;5015810;28;20029;-84
2023/08/16 06:12:13;;;;;;;16.45;12.88;;;;;;;23.73;73.65;99313.25;5012257;28;20470;-83
2023/08/16 06:14:39;;;;;;;19.90;12.00;;;;;;;23.75;73.71;99309.94;5013194;28;20037;-83
2023/08/16 06:17:04;;;;;;;29.42;13.20;;;;;;;23.80;73.17;99310.28;4999873;28;20518;-84
2023/08/16 06:19:30;;;;;;;21.92;12.55;;;;;;;24.01;72.73;99313.25;5022583;28;20029;-84
2023/08/16 06:21:55;;;;;;;20.23;13.60;;;;;;;23.95;71.73;99313.75;5019074;28;20035;-82
2023/08/16 06:24:21;;;;;;;18.98;13.07;;;;;;;23.93;70.89;99313.38;5026415;28;20028;-84
2023/08/16 06:26:46;;;;;;;20.23;14.10;;;;;;;23.89;71.22;99306.09;5011795;28;20038;-84
2023/08/16 06:29:12;;;;;;;22.98;14.85;;;;;;;24.09;70.89;99314.78;4997198;28;20037;-86
2023/08/16 06:31:37;;;;;;;17.35;13.35;;;;;;;24.16;70.04;99317.53;5015565;28;20439;-86
2023/08/16 06:34:03;;;;;;;17.42;11.00;;;;;;;24.14;70.04;99314.31;5016296;28;20083;-85
2023/08/16 06:36:29;;;;;;;15.52;10.77;;;;;;;24.12;69.71;99311.06;5008378;28;20030;-85
2023/08/16 06:38:54;;;;;;;19.42;11.70;;;;;;;24.21;69.16;99305.59;5017188;28;20127;-85
2023/08/16 06:41:20;;;;;;;19.27;11.07;;;;;;;24.27;68.95;99308.78;5034715;28;20501;-85
2023/08/16 06:43:47;;;;;;;20.15;11.63;;;;;;;24.38;68.46;99300.84;5023796;28;20033;-88
2023/08/16 06:46:13;;;;;;;18.23;10.90;;;;;;;24.39;68.22;99301.66;5042623;28;20045;-86
2023/08/16 06:48:38;;;;;;;16.20;10.73;;;;;;;24.52;67.66;99307.56;5030217;28;20419;-83
2023/08/16 06:51:05;;;;;;;12.68;11.38;;;;;;;24.57;67.16;99301.34;5033344;28;20044;-84
2023/08/16 06:53:33;;;;;;;19.35;11.48;;;;;;;24.67;67.04;99300.31;5021138;28;20032;-85
2023/08/16 06:55:58;;;;;;;13.63;11.60;;;;;;;24.77;66.08;99303.47;5009082;28;20041;-84
2023/08/16 06:58:24;;;;;;;16.13;11.65;;;;;;;24.79;66.21;99298.94;5027596;28;20178;-85
2023/08/16 07:00:50;;;;;;;13.45;10.90;;;;;;;24.85;65.56;99296.38;5034321;28;20032;-86
2023/08/16 07:03:17;;;;;;;13.30;11.90;;;;;;;25.14;65.45;99303.59;5031364;28;20025;-85
2023/08/16 07:05:43;;;;;;;16.45;11.93;;;;;;;25.18;64.72;99293.69;5042793;28;20025;-81
2023/08/16 07:08:08;;;;;;;24.05;11.73;;;;;;;25.32;64.64;99298.28;5011647;28;20470;-81
2023/08/16 07:10:34;;;;;;;20.83;12.30;;;;;;;25.42;64.26;99298.50;5037011;28;20053;-80
2023/08/16 07:13:00;;;;;;;17.17;11.48;;;;;;;25.38;64.00;99298.56;5012400;28;20041;-81
2023/08/16 07:15:25;;;;;;;18.17;11.07;;;;;;;25.44;63.53;99299.69;5027679;28;20036;-81
2023/08/16 07:17:51;;;;;;;16.20;11.63;;;;;;;25.32;64.41;99288.91;4996776;28;20061;-81
2023/08/16 07:20:16;;;;;;;14.75;11.65;;;;;;;25.53;63.51;99296.25;5034676;28;20017;-80
2023/08/16 07:22:41;;;;;;;17.52;10.77;;;;;;;25.61;63.18;99294.84;5017707;28;20116;-80
2023/08/16 07:25:08;;;;;;;16.15;11.23;;;;;;;25.71;62.72;99295.84;5024672;28;20036;-82
2023/08/16 07:27:34;;;;;;;19.13;10.80;;;;;;;25.79;62.68;99291.59;5022446;28;20108;-82
2023/08/16 07:30:00;;;;;;;18.02;11.30;;;;;;;26.10;61.92;99295.38;5025541;28;20265;-82
2023/08/16 07:32:25;;;;;;;37.30;12.50;;;;;;;26.35;61.17;99284.09;5025544;28;20021;-82
2023/08/16 07:34:51;;;;;;;16.52;10.23;;;;;;;26.29;60.61;99287.97;5036980;28;20114;-81
2023/08/16 07:37:17;;;;;;;13.38;10.40;;;;;;;26.19;60.98;99290.69;5028749;28;20411;-82
2023/08/16 07:39:44;;;;;;;14.80;9.90;;;;;;;26.53;59.92;99297.19;5014768;28;20025;-81
2023/08/16 07:42:09;;;;;;;20.13;9.60;;;;;;;26.50;59.73;99292.38;5043336;28;20049;-82
2023/08/16 07:44:35;;;;;;;16.05;10.02;;;;;;;26.60;59.57;99293.34;5025136;28;20032;-84
2023/08/16 07:47:00;;;;;;;14.30;10.50;;;;;;;26.65;59.28;99283.38;5009032;28;20036;-83
2023/08/16 07:49:26;;;;;;;15.40;11.45;;;;;;;26.82;58.85;99296.41;5027151;28;20025;-82
2023/08/16 07:51:55;;;;;;;23.92;10.98;;;;;;;26.60;59.82;99285.53;5024318;28;20420;-82
2023/08/16 07:54:20;;;;;;;19.92;10.05;;;;;;;26.47;59.63;99296.09;5018785;28;20033;-82
2023/08/16 07:56:46;;;;;;;13.57;10.18;;;;;;;26.72;59.28;99292.59;5029786;28;20032;-82
2023/08/16 07:59:11;;;;;;;15.27;9.27;;;;;;;27.20;58.08;99289.25;5005668;28;20051;-84
2023/08/16 08:01:37;;;;;;;15.10;9.40;;;;;;;27.47;57.27;99290.94;4998996;28;20428;-84
2023/08/16 08:04:03;;;;;;;29.80;10.07;;;;;;;27.49;57.06;99290.47;5023367;28;20029;-84
2023/08/16 08:06:28;;;;;;;10.20;8.88;;;;;;;27.30;56.43;99285.28;5022538;28;20033;-85
2023/08/16 08:08:54;;;;;;;14.15;9.20;;;;;;;27.59;56.10;99298.78;5017423;28;20029;-82
2023/08/16 08:11:20;;;;;;;33.42;10.68;;;;;;;27.92;55.19;99299.88;5008061;28;20083;-83
2023/08/16 08:13:45;;;;;;;15.60;10.00;;;;;;;27.93;54.59;99278.47;5034879;28;20026;-81
2023/08/16 08:16:11;;;;;;;19.48;8.45;;;;;;;28.31;53.35;99303.53;5014031;28;20483;-82
2023/08/16 08:18:36;;;;;;;14.88;7.97;;;;;;;28.33;52.42;99298.13;5008395;28;20029;-85
2023/08/16 08:21:02;;;;;;;16.92;9.27;;;;;;;28.54;51.97;99290.88;5012407;28;20025;-84
2023/08/16 08:23:28;;;;;;;14.55;9.27;;;;;;;28.55;51.07;99288.78;5020651;28;20521;-84
2023/08/16 08:25:53;;;;;;;17.83;8.98;;;;;;;28.76;50.97;99289.28;5016550;28;20065;-85
2023/08/16 08:28:20;;;;;;;19.17;9.40;;;;;;;28.99;51.18;99286.00;5014381;28;20522;-85
2023/08/16 08:30:46;;;;;;;14.43;8.15;;;;;;;29.46;52.30;99292.13;5003363;28;20021;-85
2023/08/16 08:33:11;;;;;;;21.73;8.90;;;;;;;29.59;50.38;99288.38;5005950;28;20022;-83
2023/08/16 08:35:38;;;;;;;27.85;9.25;;;;;;;29.56;49.11;99278.56;5011892;28;20025;-88
2023/08/16 08:38:03;;;;;;;13.05;8.23;;;;;;;29.64;48.37;99279.09;5009049;28;20021;-87
2023/08/16 08:40:32;;;;;;;23.05;9.15;;;;;;;29.49;49.86;99288.31;5008918;28;20487;-86
2023/08/16 08:43:03;;;;;;;15.63;9.30;;;;;;;29.74;47.47;99282.81;5029198;28;20120;-87
2023/08/16 08:45:30;;;;;;;15.73;7.68;;;;;;;30.01;47.08;99287.91;5030574;28;20017;-86
2023/08/16 08:47:59;;;;;;;13.65;8.55;;;;;;;29.96;46.48;99289.31;5013848;28;20450;-86
2023/08/16 08:50:25;;;;;;;12.68;7.50;;;;;;;30.20;46.43;99288.81;5014200;28;20036;-85
2023/08/16 08:52:53;;;;;;;40.75;10.13;;;;;;;29.99;45.63;99278.94;5014251;28;20022;-86
2023/08/16 08:55:20;;;;;;;43.22;8.85;;;;;;;29.83;45.58;99291.50;5016315;28;20506;-86
2023/08/16 08:57:52;;;;;;;7.97;6.80;;;;;;;30.04;43.96;99284.09;5012966;28;20021;-86
2023/08/16 09:00:21;;;;;;;15.50;8.10;;;;;;;30.24;46.62;99286.59;5033520;28;20060;-86
2023/08/16 09:02:51;;;;;;;12.57;8.03;;;;;;;30.13;44.18;99274.69;5006643;28;20093;-87
2023/08/16 09:05:21;;;;;;;15.98;7.60;;;;;;;30.41;44.39;99283.41;5000078;28;20468;-86
2023/08/16 09:07:46;;;;;;;19.80;8.82;;;;;;;30.30;45.08;99278.13;5012581;28;20466;-86
2023/08/16 09:10:13;;;;;;;21.90;9.25;;;;;;;30.20;45.46;99265.72;5004668;28;20056;-87
2023/08/16 09:12:38;;;;;;;9.18;7.82;;;;;;;30.28;44.73;99274.88;5035881;28;20493;-86
2023/08/16 09:15:07;;;;;;;9.73;7.65;;;;;;;30.11;44.19;99278.03;5024874;28;20025;-86
2023/08/16 09:17:33;;;;;;;10.60;6.75;;;;;;;30.04;44.57;99275.44;5010342;28;20021;-86
2023/08/16 09:20:00;;;;;;;12.82;7.45;;;;;;;30.11;44.94;99286.69;5026092;28;20919;-86
2023/08/16 09:22:27;;;;;;;13.55;7.88;;;;;;;29.68;44.19;99271.91;5019384;28;20404;-86
2023/08/16 09:24:56;;;;;;;14.95;7.15;;;;;;;29.92;45.45;99264.81;5032020;28;20044;-85
2023/08/16 09:27:22;;;;;;;12.05;7.80;;;;;;;29.99;45.62;99273.16;5016373;28;20454;-86
2023/08/16 09:29:49;;;;;;;12.05;7.43;;;;;;;29.92;45.61;99274.25;5001524;28;20029;-86
2023/08/16 09:32:14;;;;;;;13.85;7.78;;;;;;;29.80;45.05;99270.19;5010557;28;20463;-85
2023/08/16 09:34:40;;;;;;;22.40;8.43;;;;;;;29.91;45.46;99266.91;5016420;28;20065;-86
2023/08/16 09:37:05;;;;;;;11.48;8.13;;;;;;;29.82;45.37;99272.63;5029267;28;20033;-87
2023/08/16 09:39:31;;;;;;;10.35;8.07;;;;;;;30.09;45.95;99274.03;5005126;28;20032;-88
2023/08/16 09:41:57;;;;;;;15.55;7.65;;;;;;;30.17;45.90;99274.53;5022398;28;20160;-87
2023/08/16 09:44:28;;;;;;;14.35;10.55;;;;;;;30.10;44.89;99275.63;5004109;28;20032;-86
2023/08/16 09:46:55;;;;;;;17.35;8.98;;;;;;;29.99;45.64;99278.94;4997410;28;20029;-87
2023/08/16 09:49:25;;;;;;;12.75;8.13;;;;;;;30.00;45.12;99282.63;5004064;28;20029;-87
2023/08/16 09:51:51;;;;;;;17.23;9.18;;;;;;;29.86;45.81;99287.69;5013482;28;20041;-86
2023/08/16 09:54:19;;;;;;;11.77;7.80;;;;;;;29.80;45.83;99269.41;5023135;28;20049;-86
2023/08/16 09:56:45;;;;;;;16.52;8.75;;;;;;;30.13;45.99;99286.22;5012606;28;20030;-87
2023/08/16 09:59:11;;;;;;;11.82;8.02;;;;;;;30.15;45.23;99271.31;5014666;28;20025;-86
2023/08/16 10:01:37;;;;;;;16.75;9.35;;;;;;;30.02;44.75;99269.31;5006903;28;20074;-86
2023/08/16 10:04:03;;;;;;;12.85;8.48;;;;;;;29.74;45.52;99272.09;4998825;28;20029;-86
2023/08/16 10:06:33;;;;;;;24.98;9.07;;;;;;;29.82;45.49;99290.72;5004636;28;20082;-86
2023/08/16 10:09:00;;;;;;;20.70;9.00;;;;;;;29.83;45.08;99294.41;5022450;28;20458;-87
2023/08/16 10:11:28;;;;;;;12.65;9.23;;;;;;;29.75;46.04;99291.00;5012948;28;20044;-88
2023/08/16 10:13:54;;;;;;;9.68;8.45;;;;;;;29.88;45.57;99293.78;5003378;28;20117;-86
2023/08/16 10:16:22;;;;;;;10.02;9.02;;;;;;;29.88;45.20;99296.69;5010331;28;20759;-87
2023/08/16 10:18:50;;;;;;;15.43;9.45;;;;;;;29.82;45.78;99302.25;5027580;28;20506;-87
2023/08/16 10:21:17;;;;;;;14.75;8.77;;;;;;;29.76;46.97;99286.84;5011022;28;20032;-88
2023/08/16 10:23:44;;;;;;;13.98;8.80;;;;;;;30.03;46.31;99302.63;5001836;28;20057;-88
2023/08/16 10:26:14;;;;;;;14.20;8.75;;;;;;;30.11;46.11;99303.22;5022416;28;20036;-86
2023/08/16 10:28:48;;;;;;;15.77;9.02;;;;;;;29.91;46.00;99301.50;5025966;28;20017;-87
2023/08/16 10:31:18;;;;;;;21.00;10.77;;;;;;;29.81;46.67;99286.25;5013218;28;20025;-87
2023/08/16 10:33:47;;;;;;;17.33;10.50;;;;;;;29.84;46.58;99299.69;5009834;28;20030;-89
2023/08/16 10:36:14;;;;;;;19.90;10.67;;;;;;;29.74;46.66;99297.22;5011602;28;20041;-88
2023/08/16 10:38:44;;;;;;;13.88;10.50;;;;;;;29.63;46.60;99291.91;5011503;28;20052;-88
2023/08/16 10:41:14;;;;;;;17.92;9.20;;;;;;;29.75;46.30;99288.13;5013485;28;20579;-87
2023/08/16 10:43:48;;;;;;;13.18;9.38;;;;;;;29.59;46.23;99292.03;4999745;28;20055;-88
2023/08/16 10:46:45;;;;;;;12.27;9.52;;;;;;;29.58;46.50;99286.75;5012036;28;20022;-87
2023/08/16 10:49:11;;;;;;;13.52;8.80;;;;;;;29.57;46.59;99288.81;5001346;28;20033;-86
2023/08/16 10:51:53;;;;;;;15.20;9.68;;;;;;;29.83;46.09;99283.69;5006312;28;20034;-86
2023/08/16 10:54:32;;;;;;;16.38;9.63;;;;;;;29.85;46.38;99288.94;5011010;28;20025;-87
2023/08/16 10:57:02;;;;;;;12.05;9.07;;;;;;;29.81;46.66;99286.25;5008004;28;20021;-89
2023/08/16 10:59:36;;;;;;;;;;;;;;;29.93;45.38;99293.16;5009774;28;20025;-86
2023/08/16 11:02:08;;;;;;;19.65;9.85;;;;;;;29.96;45.66;99289.31;5014057;28;19917;-87
2023/08/16 11:04:38;;;;;;;18.00;9.73;;;;;;;30.02;45.73;99286.63;5013755;28;20025;-87
2023/08/16 11:07:07;;;;;;;;;;;;;;;29.88;45.86;99285.16;5014288;28;20562;-86
2023/08/16 11:09:33;;;;;;;16.42;10.10;;;;;;;29.78;45.29;99249.69;5008104;28;20344;-85
2023/08/16 11:12:03;;;;;;;26.42;11.15;;;;;;;30.15;44.86;99279.97;5013245;28;20025;-86
2023/08/16 11:14:29;;;;;;;16.42;8.68;;;;;;;30.21;44.67;99275.19;5004613;28;20479;-87
2023/08/16 11:16:55;;;;;;;20.48;8.98;;;;;;;30.49;44.93;99267.41;5016905;28;20061;-86
2023/08/16 11:19:21;;;;;;;16.23;9.20;;;;;;;30.83;43.34;99276.28;5017512;28;20112;-86
2023/08/16 11:21:47;;;;;;;15.95;10.07;;;;;;;30.70;43.62;99272.75;5013896;28;20496;-85